createdAt,value
2019-02-27T00:01:53.522Z,258.23
2019-02-27T00:04:22.014Z,315.00
2019-02-27T00:06:49.636Z,268.40
2019-02-27T00:09:17.230Z,320.70
2019-02-27T00:11:46.774Z,282.30
2019-02-27T00:14:14.174Z,322.03
2019-02-27T00:19:02.120Z,349.47
2019-02-27T00:21:29.709Z,312.17
2019-02-27T00:23:57.413Z,367.03
2019-02-27T00:26:24.858Z,308.13
2019-02-27T00:28:55.959Z,350.90
2019-02-27T00:31:21.798Z,310.97
2019-02-27T00:33:49.299Z,297.10
2019-02-27T00:36:16.638Z,312.87
2019-02-27T00:38:44.171Z,293.20
2019-02-27T00:41:12.871Z,311.67
2019-02-27T00:43:40.750Z,310.33
2019-02-27T00:46:10.711Z,316.10
2019-02-27T00:48:37.722Z,291.07
2019-02-27T00:51:05.095Z,319.33
2019-02-27T00:53:32.458Z,304.93
2019-02-27T00:55:59.911Z,315.10
2019-02-27T00:58:27.649Z,335.47
2019-02-27T01:00:55.306Z,317.63
2019-02-27T01:03:26.000Z,316.47
2019-02-27T01:05:52.270Z,321.37
2019-02-27T01:08:19.641Z,312.73
2019-02-27T01:10:47.204Z,333.10
2019-02-27T01:13:14.760Z,341.87
2019-02-27T01:15:44.655Z,342.50
2019-02-27T01:18:11.941Z,353.43
2019-02-27T01:20:39.568Z,369.47
2019-02-27T01:23:10.860Z,353.50
2019-02-27T01:25:36.407Z,357.83
2019-02-27T01:28:04.054Z,341.77
2019-02-27T01:30:31.593Z,345.10
2019-02-27T01:32:59.077Z,359.33
2019-02-27T01:35:27.212Z,350.37
2019-02-27T01:37:54.776Z,345.63
2019-02-27T01:40:22.361Z,359.97
2019-02-27T01:42:49.856Z,327.87
2019-02-27T01:45:20.829Z,344.70
2019-02-27T01:47:47.100Z,333.57
2019-02-27T01:50:37.488Z,326.00
2019-02-27T01:53:07.319Z,332.23
2019-02-27T01:55:36.052Z,324.83
2019-02-27T01:58:03.878Z,302.97
2019-02-27T02:00:31.536Z,324.80
2019-02-27T02:02:59.260Z,316.67
2019-02-27T02:05:27.468Z,299.87
2019-02-27T02:07:56.364Z,323.53
2019-02-27T02:10:28.016Z,316.40
2019-02-27T02:13:19.887Z,310.93
2019-02-27T02:16:59.600Z,342.03
2019-02-27T02:20:21.379Z,362.73
2019-02-27T02:23:37.245Z,319.47
2019-02-27T02:26:53.445Z,311.07
2019-02-27T02:30:29.848Z,330.63
2019-02-27T02:34:08.973Z,317.63
2019-02-27T02:37:52.960Z,309.20
2019-02-27T02:40:54.268Z,310.07
2019-02-27T02:44:20.709Z,312.50
2019-02-27T02:47:29.010Z,328.03
2019-02-27T02:50:21.769Z,347.37
2019-02-27T02:53:38.522Z,305.30
2019-02-27T02:56:39.388Z,342.73
2019-02-27T02:59:59.505Z,335.93
2019-02-27T03:02:34.047Z,310.20
2019-02-27T03:05:30.787Z,348.20
2019-02-27T03:08:25.042Z,360.73
2019-02-27T03:11:45.811Z,311.17
2019-02-27T03:14:25.907Z,354.03
2019-02-27T03:17:56.162Z,306.50
2019-02-27T03:21:17.666Z,310.63
2019-02-27T03:24:28.964Z,404.93
2019-02-27T03:27:47.162Z,290.20
2019-02-27T03:31:18.100Z,312.00
2019-02-27T03:34:52.100Z,335.90
2019-02-27T03:37:48.599Z,287.27
2019-02-27T03:41:23.617Z,297.13
2019-02-27T03:44:59.308Z,303.10
2019-02-27T03:47:51.641Z,286.67
2019-02-27T03:51:38.945Z,324.33
2019-02-27T03:54:24.121Z,308.87
2019-02-27T03:57:31.699Z,336.57
2019-02-27T04:00:54.574Z,312.97
2019-02-27T04:04:29.615Z,301.60
2019-02-27T04:07:32.743Z,277.27
2019-02-27T04:10:00.284Z,288.67
2019-02-27T04:12:27.807Z,291.30
2019-02-27T04:14:55.256Z,334.77
2019-02-27T04:17:28.074Z,298.80
2019-02-27T04:19:56.394Z,342.70
2019-02-27T04:22:23.937Z,304.50
2019-02-27T04:24:56.423Z,336.23
2019-02-27T04:27:21.457Z,310.33
2019-02-27T04:29:49.737Z,341.40
2019-02-27T04:32:17.992Z,280.17
2019-02-27T04:34:45.551Z,343.00
2019-02-27T04:37:12.987Z,291.40
2019-02-27T04:39:40.396Z,328.57
2019-02-27T04:42:07.874Z,289.63
2019-02-27T04:44:35.906Z,309.53
2019-02-27T04:47:04.707Z,268.50
2019-02-27T04:49:34.813Z,337.00
2019-02-27T04:52:03.112Z,274.90
2019-02-27T04:54:30.566Z,314.93
2019-02-27T04:56:58.170Z,308.37
2019-02-27T04:59:25.783Z,373.00
2019-02-27T05:01:53.363Z,298.33
2019-02-27T05:04:20.964Z,364.87
2019-02-27T05:06:48.358Z,305.00
2019-02-27T05:09:15.924Z,310.13
2019-02-27T05:11:47.520Z,283.87
2019-02-27T05:14:12.729Z,316.50
2019-02-27T05:16:40.252Z,275.83
2019-02-27T05:19:07.755Z,339.03
2019-02-27T05:21:35.266Z,303.37
2019-02-27T05:24:05.262Z,310.03
2019-02-27T05:26:32.150Z,343.67
2019-02-27T05:28:59.656Z,355.90
2019-02-27T05:31:27.246Z,310.33
2019-02-27T05:33:54.649Z,319.97
2019-02-27T05:36:22.135Z,366.57
2019-02-27T05:38:49.556Z,327.90
2019-02-27T05:41:17.038Z,319.10
2019-02-27T05:43:47.604Z,296.93
2019-02-27T05:46:15.111Z,310.50
2019-02-27T05:48:42.649Z,297.83
2019-02-27T05:51:11.430Z,300.43
2019-02-27T05:53:40.297Z,325.97
2019-02-27T05:57:47.535Z,367.20
2019-02-27T06:00:16.352Z,309.53
2019-02-27T06:02:45.016Z,313.03
2019-02-27T06:05:13.648Z,356.20
2019-02-27T06:07:41.453Z,326.63
2019-02-27T06:10:12.091Z,332.33
2019-02-27T06:12:40.751Z,323.93
2019-02-27T06:15:12.530Z,377.33
2019-02-27T06:17:43.406Z,323.20
2019-02-27T06:20:09.835Z,320.30
2019-02-27T06:22:37.364Z,358.27
2019-02-27T06:25:05.984Z,342.57
2019-02-27T06:27:33.610Z,344.37
2019-02-27T06:30:01.194Z,349.63
2019-02-27T06:32:28.724Z,337.53
2019-02-27T06:34:59.283Z,413.03
2019-02-27T06:37:25.896Z,341.00
2019-02-27T06:39:54.200Z,356.37
2019-02-27T06:42:23.094Z,381.53
2019-02-27T06:44:50.720Z,366.37
2019-02-27T06:47:18.612Z,357.93
2019-02-27T06:49:46.114Z,357.10
2019-02-27T06:52:13.422Z,330.43
2019-02-27T06:54:41.216Z,352.50
2019-02-27T06:57:08.885Z,362.23
2019-02-27T06:59:36.987Z,346.60
2019-02-27T07:02:04.506Z,304.63
2019-02-27T07:04:31.861Z,352.57
2019-02-27T07:07:00.617Z,324.30
2019-02-27T07:09:28.212Z,341.37
2019-02-27T07:11:55.537Z,346.40
2019-02-27T07:14:22.957Z,392.37
2019-02-27T07:16:51.645Z,329.93
2019-02-27T07:22:55.509Z,318.57
2019-02-27T07:25:22.967Z,331.97
2019-02-27T07:27:50.417Z,374.80
2019-02-27T07:30:18.051Z,326.87
2019-02-27T07:32:45.693Z,319.80
2019-02-27T07:35:13.695Z,314.70
2019-02-27T07:37:41.388Z,301.50
2019-02-27T07:40:11.426Z,312.93
2019-02-27T07:42:38.767Z,311.43
2019-02-27T07:45:08.129Z,288.70
2019-02-27T07:47:37.102Z,303.33
2019-02-27T07:50:08.702Z,331.30
2019-02-27T07:52:36.321Z,339.50
2019-02-27T07:55:15.581Z,366.53
2019-02-27T07:57:37.994Z,306.03
2019-02-27T08:00:15.006Z,306.93
2019-02-27T08:02:41.871Z,311.90
2019-02-27T08:05:09.430Z,311.17
2019-02-27T08:07:36.930Z,298.93
2019-02-27T08:10:06.831Z,324.97
2019-02-27T08:12:34.359Z,299.80
2019-02-27T08:15:01.915Z,313.83
2019-02-27T08:17:33.530Z,314.00
2019-02-27T08:20:00.898Z,345.63
2019-02-27T08:22:31.455Z,294.93
2019-02-27T08:24:58.791Z,313.87
2019-02-27T08:27:26.408Z,292.70
2019-02-27T08:29:53.771Z,346.10
2019-02-27T08:32:21.361Z,295.53
2019-02-27T08:34:50.771Z,331.53
2019-02-27T08:37:20.243Z,287.73
2019-02-27T08:39:47.913Z,331.13
2019-02-27T08:42:15.821Z,340.33
2019-02-27T08:44:45.796Z,354.37
2019-02-27T08:47:12.741Z,310.77
2019-02-27T08:49:40.368Z,363.70
2019-02-27T08:52:08.544Z,311.60
2019-02-27T08:54:36.363Z,348.07
2019-02-27T08:57:04.431Z,315.47
2019-02-27T08:59:33.658Z,335.07
2019-02-27T09:02:01.088Z,298.40
2019-02-27T09:04:28.832Z,360.33
2019-02-27T09:07:02.112Z,331.60
2019-02-27T09:09:25.905Z,337.20
2019-02-27T09:11:53.396Z,340.03
2019-02-27T09:14:20.732Z,340.60
2019-02-27T09:16:48.383Z,321.43
2019-02-27T09:19:15.869Z,371.67
2019-02-27T09:21:43.291Z,307.50
2019-02-27T09:24:11.161Z,356.63
2019-02-27T09:26:38.574Z,307.33
2019-02-27T09:29:06.178Z,339.60
2019-02-27T09:31:34.776Z,311.47
2019-02-27T09:34:03.749Z,335.00
2019-02-27T09:36:31.344Z,296.10
2019-02-27T09:38:59.586Z,320.33
2019-02-27T09:41:27.296Z,304.87
2019-02-27T09:43:54.952Z,328.33
2019-02-27T09:46:22.785Z,313.70
2019-02-27T09:48:50.576Z,304.83
2019-02-27T09:51:19.146Z,323.63
2019-02-27T09:53:49.359Z,342.07
2019-02-27T09:56:16.963Z,359.13
2019-02-27T09:58:45.558Z,296.90
2019-02-27T10:01:16.615Z,303.20
2019-02-27T10:03:44.330Z,334.07
2019-02-27T10:06:11.920Z,307.87
2019-02-27T10:08:39.586Z,367.37
2019-02-27T10:11:07.538Z,312.30
2019-02-27T10:13:35.498Z,298.57
2019-02-27T10:16:04.544Z,292.83
2019-02-27T10:18:31.989Z,304.37
2019-02-27T10:20:59.794Z,323.63
2019-02-27T10:23:30.435Z,304.53
2019-02-27T10:25:56.695Z,309.00
2019-02-27T10:28:24.528Z,317.33
2019-02-27T10:30:52.151Z,340.87
2019-02-27T10:33:21.503Z,377.10
2019-02-27T10:35:52.177Z,330.77
2019-02-27T10:38:19.805Z,320.13
2019-02-27T10:40:47.489Z,302.37
2019-02-27T10:43:14.901Z,329.40
2019-02-27T10:45:42.458Z,325.20
2019-02-27T10:48:12.593Z,353.63
2019-02-27T10:50:39.640Z,325.63
2019-02-27T10:53:07.278Z,326.57
2019-02-27T10:55:34.890Z,292.53
2019-02-27T10:58:02.978Z,310.70
2019-02-27T11:00:35.381Z,341.07
2019-02-27T11:03:03.248Z,314.70
2019-02-27T11:05:34.469Z,293.67
2019-02-27T11:08:03.383Z,287.17
2019-02-27T11:10:31.311Z,378.43
2019-02-27T11:13:05.522Z,307.27
2019-02-27T11:15:30.721Z,332.20
2019-02-27T11:18:04.208Z,322.67
2019-02-27T11:20:27.986Z,382.93
2019-02-27T11:22:57.403Z,291.83
2019-02-27T11:25:26.814Z,264.30
2019-02-27T11:27:55.634Z,302.93
2019-02-27T11:30:35.953Z,299.53
2019-02-27T11:33:02.112Z,305.30
2019-02-27T11:35:31.866Z,258.23
2019-02-27T11:37:59.449Z,288.80
2019-02-27T11:40:32.237Z,306.53
2019-02-27T11:43:01.110Z,316.00
2019-02-27T11:45:29.109Z,260.27
2019-02-27T11:47:57.207Z,294.47
2019-02-27T11:50:25.001Z,297.37
2019-02-27T11:52:52.702Z,306.77
2019-02-27T11:55:20.327Z,286.57
2019-02-27T11:57:47.992Z,288.63
2019-02-27T12:00:21.334Z,322.23
2019-02-27T12:02:48.941Z,258.20
2019-02-27T12:05:16.536Z,283.10
2019-02-27T12:07:50.685Z,280.40
2019-02-27T12:10:20.599Z,272.63
2019-02-27T12:12:48.049Z,283.87
2019-02-27T12:15:17.624Z,283.10
2019-02-27T12:17:47.030Z,263.43
2019-02-27T12:20:18.249Z,273.50
2019-02-27T12:22:46.097Z,266.77
2019-02-27T12:25:14.172Z,274.80
2019-02-27T12:27:49.182Z,262.07
2019-02-27T12:30:17.987Z,255.13
2019-02-27T12:32:45.671Z,274.63
2019-02-27T12:35:17.061Z,302.57
2019-02-27T12:37:45.650Z,276.07
2019-02-27T12:40:15.661Z,262.33
2019-02-27T12:42:46.202Z,275.70
2019-02-27T12:45:17.097Z,262.37
2019-02-27T12:47:44.837Z,271.67
2019-02-27T12:50:15.169Z,264.97
2019-02-27T12:52:44.781Z,244.87
2019-02-27T12:55:12.896Z,252.37
2019-02-27T12:57:40.548Z,253.40
2019-02-27T13:00:14.658Z,253.57
2019-02-27T13:02:42.386Z,290.63
2019-02-27T13:05:12.501Z,307.40
2019-02-27T13:07:42.129Z,288.20
2019-02-27T13:10:13.774Z,314.67
2019-02-27T13:12:41.379Z,258.43
2019-02-27T13:15:11.937Z,275.47
2019-02-27T13:17:39.652Z,309.17
2019-02-27T13:20:12.514Z,264.00
2019-02-27T13:22:40.898Z,309.37
2019-02-27T13:25:08.639Z,282.47
2019-02-27T13:27:36.411Z,285.13
2019-02-27T13:30:09.241Z,297.43
2019-02-27T13:32:37.151Z,260.10
2019-02-27T13:35:05.457Z,287.93
2019-02-27T13:37:33.049Z,283.00
2019-02-27T13:40:01.355Z,286.40
2019-02-27T13:42:31.211Z,274.63
2019-02-27T13:44:59.468Z,289.73
2019-02-27T13:47:28.661Z,316.40
2019-02-27T13:50:01.018Z,337.90
2019-02-27T13:52:31.013Z,260.80
2019-02-27T13:55:00.891Z,302.50
2019-02-27T13:57:34.284Z,276.30
2019-02-27T14:00:02.495Z,358.13
2019-02-27T14:02:31.312Z,295.90
2019-02-27T14:05:01.242Z,375.40
2019-02-27T14:07:31.269Z,332.70
2019-02-27T14:09:59.067Z,312.07
2019-02-27T14:12:26.457Z,271.27
2019-02-27T14:14:55.902Z,339.57
2019-02-27T14:17:24.730Z,292.50
2019-02-27T14:22:46.111Z,289.50
2019-02-27T14:25:17.537Z,344.90
2019-02-27T14:27:47.560Z,306.03
2019-02-27T14:30:24.759Z,329.63
2019-02-27T14:32:52.869Z,318.87
2019-02-27T14:35:22.170Z,298.23
2019-02-27T14:37:51.205Z,293.90
2019-02-27T14:40:20.599Z,298.97
2019-02-27T14:42:54.019Z,290.83
2019-02-27T14:45:20.869Z,289.70
2019-02-27T14:47:50.992Z,305.47
2019-02-27T14:50:22.016Z,275.23
2019-02-27T14:52:50.828Z,318.57
2019-02-27T14:55:20.409Z,301.33
2019-02-27T14:57:51.148Z,261.03
2019-02-27T15:00:24.805Z,287.13
2019-02-27T15:02:55.588Z,306.57
2019-02-27T15:05:24.791Z,283.37
2019-02-27T15:07:53.550Z,273.97
2019-02-27T15:10:23.192Z,288.60
2019-02-27T15:12:55.136Z,271.50
2019-02-27T15:15:27.414Z,291.77
2019-02-27T15:17:58.287Z,303.00
2019-02-27T15:20:26.333Z,275.17
2019-02-27T15:22:54.066Z,263.67
2019-02-27T15:25:22.328Z,259.20
2019-02-27T15:27:49.793Z,256.07
2019-02-27T15:30:20.127Z,288.00
2019-02-27T15:32:48.009Z,270.30
2019-02-27T15:35:20.862Z,340.30
2019-02-27T15:37:48.263Z,256.50
2019-02-27T15:40:19.748Z,270.10
2019-02-27T15:42:48.469Z,275.90
2019-02-27T15:45:19.976Z,300.43
2019-02-27T15:47:49.103Z,271.60
2019-02-27T15:50:22.427Z,312.27
2019-02-27T15:52:49.304Z,276.90
2019-02-27T15:55:17.245Z,282.67
2019-02-27T15:57:45.343Z,265.03
2019-02-27T16:00:18.487Z,284.37
2019-02-27T16:02:46.732Z,291.30
2019-02-27T16:05:15.088Z,305.83
2019-02-27T16:07:48.480Z,294.40
2019-02-27T16:10:15.694Z,308.00
2019-02-27T16:12:43.683Z,272.87
2019-02-27T16:15:11.415Z,303.60
2019-02-27T16:17:39.484Z,360.53
2019-02-27T16:20:11.253Z,280.87
2019-02-27T16:22:38.886Z,281.17
2019-02-27T16:25:08.260Z,349.37
2019-02-27T16:27:38.649Z,276.63
2019-02-27T16:30:07.610Z,249.17
2019-02-27T16:32:36.684Z,256.97
2019-02-27T16:35:07.852Z,259.00
2019-02-27T16:37:34.969Z,287.50
2019-02-27T16:40:05.534Z,298.93
2019-02-27T16:42:33.006Z,294.23
2019-02-27T16:45:00.569Z,277.43
2019-02-27T16:47:28.239Z,276.77
2019-02-27T16:49:55.996Z,291.57
2019-02-27T16:52:24.803Z,283.53
2019-02-27T16:54:54.082Z,378.07
2019-02-27T16:57:24.451Z,294.07
2019-02-27T16:59:51.652Z,330.97
2019-02-27T17:02:19.192Z,293.43
2019-02-27T17:04:49.643Z,336.97
2019-02-27T17:07:17.303Z,287.93
2019-02-27T17:09:45.057Z,332.93
2019-02-27T17:12:12.937Z,326.60
2019-02-27T17:14:41.706Z,338.07
2019-02-27T17:17:19.542Z,282.30
2019-02-27T17:19:47.232Z,337.37
2019-02-27T17:22:14.675Z,288.27
2019-02-27T17:24:42.526Z,332.00
2019-02-27T17:27:31.245Z,292.50
2019-02-27T17:30:00.052Z,326.23
2019-02-27T17:32:30.359Z,294.70
2019-02-27T17:34:59.100Z,327.07
2019-02-27T17:37:26.788Z,300.37
2019-02-27T17:39:55.511Z,337.03
2019-02-27T17:42:23.273Z,363.27
2019-02-27T17:44:50.784Z,354.27
2019-02-27T17:47:20.307Z,316.20
2019-02-27T17:49:48.240Z,333.47
2019-02-27T17:52:16.441Z,300.13
2019-02-27T17:54:46.088Z,333.63
2019-02-27T17:57:13.658Z,316.00
2019-02-27T17:59:44.683Z,348.20
2019-02-27T18:02:12.522Z,324.07
2019-02-27T18:04:53.852Z,351.20
2019-02-27T18:07:22.803Z,307.43
2019-02-27T18:09:50.768Z,360.10
2019-02-27T18:12:18.265Z,312.23
2019-02-27T18:14:46.939Z,350.63
2019-02-27T18:17:15.195Z,332.57
2019-02-27T18:19:50.122Z,331.43
2019-02-27T18:22:18.337Z,322.90
2019-02-27T18:24:46.523Z,447.60
2019-02-27T18:27:14.229Z,367.93
2019-02-27T18:29:43.704Z,372.07
2019-02-27T18:32:12.147Z,318.30
2019-02-27T18:34:44.001Z,344.13
2019-02-27T18:37:20.022Z,336.37
2019-02-27T18:39:48.546Z,370.23
2019-02-27T18:42:20.299Z,347.77
2019-02-27T18:44:45.615Z,378.77
2019-02-27T18:47:18.675Z,344.90
2019-02-27T18:49:53.378Z,372.60
2019-02-27T18:52:33.382Z,330.30
2019-02-27T18:55:01.307Z,367.07
2019-02-27T18:57:30.497Z,323.63
2019-02-27T19:00:02.353Z,358.27
2019-02-27T19:05:30.603Z,334.17
2019-02-27T19:07:58.536Z,323.23
2019-02-27T19:10:33.311Z,337.77
2019-02-27T19:13:01.245Z,335.77
2019-02-27T19:15:32.722Z,374.87
2019-02-27T19:18:03.683Z,378.17
2019-02-27T19:20:34.816Z,369.63
2019-02-27T19:23:02.555Z,412.30
2019-02-27T19:25:40.036Z,374.17
2019-02-27T19:28:12.341Z,375.27
2019-02-27T19:30:41.858Z,360.60
2019-02-27T19:33:12.148Z,387.50
2019-02-27T19:35:39.934Z,389.07
2019-02-27T19:38:16.656Z,386.50
2019-02-27T19:40:45.855Z,376.43
2019-02-27T19:43:14.391Z,373.57
2019-02-27T19:45:42.487Z,371.07
2019-02-27T19:48:11.760Z,394.20
2019-02-27T19:50:44.969Z,370.53
2019-02-27T19:53:12.281Z,384.23
2019-02-27T19:55:40.070Z,387.20
2019-02-27T19:58:17.152Z,389.67
2019-02-27T20:00:48.481Z,386.27
2019-02-27T20:03:13.798Z,379.13
2019-02-27T20:05:41.480Z,385.23
2019-02-27T20:08:10.810Z,390.47
2019-02-27T20:10:39.735Z,439.23
2019-02-27T20:13:16.131Z,378.53
2019-02-27T20:15:46.668Z,388.33
2019-02-27T20:18:15.411Z,387.97
2019-02-27T20:20:43.516Z,383.97
2019-02-27T20:23:11.047Z,391.63
2019-02-27T20:25:42.955Z,402.27
2019-02-27T20:28:09.141Z,383.30
2019-02-27T20:30:37.278Z,366.97
2019-02-27T20:33:05.878Z,377.00
2019-02-27T20:35:33.722Z,372.40
2019-02-27T20:38:01.705Z,363.10
2019-02-27T20:40:33.756Z,358.93
2019-02-27T20:42:58.973Z,375.40
2019-02-27T20:45:26.826Z,378.37
2019-02-27T20:48:00.493Z,423.27
2019-02-27T20:50:35.305Z,378.13
2019-02-27T20:53:03.257Z,449.77
2019-02-27T20:55:31.907Z,337.87
2019-02-27T20:57:59.544Z,387.17
2019-02-27T21:00:28.190Z,339.13
2019-02-27T21:02:55.713Z,351.33
2019-02-27T21:05:23.327Z,375.17
2019-02-27T21:07:50.918Z,379.90
2019-02-27T21:10:21.096Z,370.77
2019-02-27T21:12:54.050Z,378.50
2019-02-27T21:15:19.136Z,379.17
2019-02-27T21:17:46.832Z,390.77
2019-02-27T21:20:16.605Z,414.20
2019-02-27T21:22:44.231Z,396.30
2019-02-27T21:25:14.934Z,416.80
2019-02-27T21:27:43.021Z,382.53
2019-02-27T21:30:17.849Z,466.30
2019-02-27T21:32:43.081Z,377.57
2019-02-27T21:35:10.907Z,411.90
2019-02-27T21:37:44.603Z,405.33
2019-02-27T21:40:11.389Z,420.33
2019-02-27T21:42:41.495Z,406.43
2019-02-27T21:45:12.599Z,418.67
2019-02-27T21:47:41.239Z,403.60
2019-02-27T21:50:11.376Z,403.07
2019-02-27T21:52:43.621Z,408.23
2019-02-27T21:55:13.018Z,421.10
2019-02-27T21:57:40.985Z,420.33
2019-02-27T22:00:13.998Z,406.10
2019-02-27T22:02:43.144Z,390.90
2019-02-27T22:05:10.772Z,394.53
2019-02-27T22:07:38.333Z,395.87
2019-02-27T22:10:09.709Z,393.93
2019-02-27T22:12:37.262Z,431.60
2019-02-27T22:15:12.477Z,391.10
2019-02-27T22:17:39.796Z,411.83
2019-02-27T22:20:09.744Z,368.33
2019-02-27T22:22:41.136Z,358.43
2019-02-27T22:25:07.320Z,385.17
2019-02-27T22:27:34.713Z,358.17
2019-02-27T22:30:04.921Z,370.33
2019-02-27T22:32:32.585Z,369.63
2019-02-27T22:35:02.821Z,381.20
2019-02-27T22:37:30.663Z,354.83
2019-02-27T22:39:58.086Z,417.07
2019-02-27T22:42:25.644Z,402.43
2019-02-27T22:44:53.233Z,413.37
2019-02-27T22:47:21.671Z,375.23
2019-02-27T22:49:51.088Z,385.77
2019-02-27T22:52:19.595Z,375.67
2019-02-27T22:54:47.994Z,436.63
2019-02-27T22:57:15.377Z,374.97
2019-02-27T22:59:42.912Z,412.23
2019-02-27T23:02:10.486Z,355.43
2019-02-27T23:04:38.292Z,408.37
2019-02-27T23:07:05.993Z,347.37
2019-02-27T23:09:33.534Z,381.50
2019-02-27T23:12:01.438Z,329.23
2019-02-27T23:14:28.931Z,384.03
2019-02-27T23:16:56.751Z,335.70
2019-02-27T23:19:24.362Z,370.27
2019-02-27T23:21:51.861Z,339.20
2019-02-27T23:24:19.483Z,389.73
2019-02-27T23:26:46.953Z,352.00
2019-02-27T23:29:14.585Z,356.37
2019-02-27T23:31:42.117Z,334.80
2019-02-27T23:34:10.273Z,363.80
2019-02-27T23:36:37.811Z,330.27
2019-02-27T23:39:08.747Z,352.47
2019-02-27T23:41:37.375Z,327.40
2019-02-27T23:44:05.501Z,359.70
2019-02-27T23:46:33.625Z,327.33
2019-02-27T23:49:01.182Z,334.87
2019-02-27T23:51:29.232Z,347.87
2019-02-27T23:53:58.605Z,345.90
2019-02-27T23:56:25.988Z,368.00
2019-02-27T23:58:53.490Z,332.50
